Historical Weather Data
Okotoks
Hwy 2A and Milligan Dr

Date
ET inches
Rain inches
Temperature °C
Humidity
Avg
Wind kmh
Avg
Solar Wm2
Avg
High
Avg
Low
01/01/2020 0.01 0.00 2.0 -3.0 -11.4 85 0.0 39
01/02/2020 0.01 0.00 -1.0 -6.8 -16.0 80 0.0 40
01/03/2020 0.01 0.00 7.9 -5.2 -11.5 63 0.0 50
01/04/2020 0.01 0.00 7.2 0.6 -8.4 56 0.0 46
01/05/2020 0.01 0.00 3.3 -4.8 -13.9 52 0.0 53
01/06/2020 0.01 0.00 -1.2 -8.2 -13.2 70 0.0 45
01/07/2020 0.00 0.00 -8.0 -11.6 -16.6 92 0.0 29
01/08/2020 0.01 0.00 -9.0 -11.1 -15.6 91 0.0 35
01/09/2020 0.00 0.00 -11.4 -16.3 -21.1 83 0.0 41
01/10/2020 0.01 0.00 -4.9 -16.5 -27.5 78 0.0 26
01/11/2020 0.00 0.00 -9.7 -18.8 -23.4 81 0.0 43
01/12/2020 0.00 0.00 -20.4 -23.8 -26.5 70 0.0 36
01/13/2020 0.00 0.00 -20.8 -28.6 -36.8 71 0.0 34
01/14/2020 0.00 0.00 -26.0 -33.9 -37.5 69 0.0 39
01/15/2020 0.00 0.00 -24.4 -33.2 -37.5 67 0.0 51
01/16/2020 0.00 0.00 -26.2 -29.0 -30.7 72 0.0 31
01/17/2020 0.00 0.00 -19.1 -26.5 -32.0 68 0.0 51
01/18/2020 0.00 0.00 -19.3 -26.0 -32.8 73 0.0 41
01/19/2020 0.01 0.00 2.4 -10.8 -24.2 72 0.0 35
01/20/2020 0.02 0.00 9.7 2.9 -3.9 59 0.0 32
01/21/2020 0.02 0.00 4.3 -0.8 -7.4 68 0.0 60
01/22/2020 0.02 0.00 6.5 -2.9 -10.9 60 0.0 71
01/23/2020 0.01 0.00 7.5 -4.6 -13.6 69 0.0 44
01/24/2020 0.02 0.00 7.1 3.5 -1.3 63 0.0 50
01/25/2020 0.02 0.00 8.6 -0.4 -11.0 58 0.0 77
01/26/2020 0.01 0.00 0.8 -6.0 -12.5 78 0.0 59
01/27/2020 0.02 0.00 8.9 -3.3 -10.4 63 0.0 76
01/28/2020 0.01 0.00 4.1 -6.8 -13.1 70 0.0 51
01/29/2020 0.01 0.00 5.0 -6.1 -14.5 72 0.0 48
01/30/2020 0.02 0.00 5.3 -0.6 -10.0 52 0.0 61
01/31/2020 0.03 0.00 10.2 2.9 -4.4 58 0.0 79
02/01/2020 0.01 0.00 8.5 2.8 -5.7 78 0.0 38
02/02/2020 0.02 0.00 -0.4 -8.0 -14.4 68 0.0 88
02/03/2020 0.01 0.00 -0.3 -11.6 -21.7 77 0.0 82
02/04/2020 0.01 0.00 -0.6 -11.8 -22.0 68 0.0 66
02/05/2020 0.02 0.00 4.3 -0.4 -4.8 49 0.0 68
02/06/2020 0.02 0.00 4.4 -3.0 -9.3 60 0.0 76
02/07/2020 0.02 0.00 2.0 -5.2 -11.0 75 0.0 97
02/08/2020 0.01 0.00 -4.3 -7.1 -14.6 89 0.0 63
02/09/2020 0.02 0.00 5.0 -5.6 -17.1 67 0.0 65
02/10/2020 0.03 0.00 1.6 -4.3 -10.4 59 0.0 105
02/11/2020 0.03 0.00 4.9 -3.4 -10.5 76 0.0 89
02/12/2020 0.02 0.00 -8.7 -11.4 -13.9 88 0.0 99
02/13/2020 0.02 0.00 6.9 -6.4 -17.3 71 0.0 91
02/14/2020 0.03 0.00 2.7 -4.9 -12.3 81 0.0 106
02/15/2020 0.02 0.00 3.8 -5.3 -9.9 78 0.0 99
02/16/2020 0.03 0.00 4.1 -5.2 -13.1 69 0.0 109
02/17/2020 0.01 0.00 -8.9 -13.5 -16.2 82 0.0 89
02/18/2020 0.02 0.00 -5.5 -15.1 -20.9 82 0.0 105
02/19/2020 0.03 0.00 2.3 -10.4 -19.4 69 0.0 123
02/20/2020 0.04 0.00 12.5 -3.8 -16.1 48 0.0 129
02/21/2020 0.02 0.00 4.4 -4.3 -12.7 51 0.0 76
02/22/2020 0.04 0.00 7.9 -2.2 -11.7 65 0.0 123
02/23/2020 0.03 0.00 3.4 -4.4 -11.5 85 0.0 102
02/24/2020 0.02 0.00 -2.0 -6.7 -14.8 84 0.0 109
02/25/2020 0.03 0.00 1.3 -9.1 -17.8 81 0.0 129
02/26/2020 0.04 0.00 7.1 -1.0 -8.2 59 0.0 109
02/27/2020 0.05 0.00 10.5 0.4 -8.5 49 0.0 130
02/28/2020 0.05 0.00 11.9 4.9 -3.0 50 0.0 124
02/29/2020 0.04 0.00 6.0 1.3 -4.3 62 0.0 103
03/01/2020 0.04 0.00 5.6 -3.9 -12.7 68 0.0 137
03/02/2020 0.05 0.00 7.2 1.9 -5.1 42 0.0 136
03/03/2020 0.05 0.00 6.3 2.9 -5.2 42 0.0 144
03/04/2020 0.04 0.00 3.1 -1.8 -12.8 57 0.0 132
03/05/2020 0.05 0.00 8.8 -1.6 -14.6 50 0.0 122
03/06/2020 0.06 0.00 8.5 1.2 -7.0 63 0.0 155
03/07/2020 0.02 0.00 -6.8 -11.1 -15.2 86 0.0 112
03/08/2020 0.03 0.00 -8.6 -14.9 -23.4 81 0.0 158
03/09/2020 0.05 0.00 5.5 -8.7 -18.1 61 0.0 174
03/10/2020 0.03 0.00 5.2 -3.9 -15.7 50 0.0 84
03/11/2020 0.03 0.00 2.7 -1.3 -4.3 68 0.0 80
03/12/2020 0.05 0.00 2.3 -4.8 -9.7 75 0.0 157
03/13/2020 0.02 0.00 -7.8 -15.8 -21.1 81 0.0 155
03/14/2020 0.02 0.00 -17.7 -20.8 -23.1 75 0.0 157
03/15/2020 0.03 0.00 -9.5 -19.6 -27.6 65 0.0 190
03/16/2020 0.05 0.00 6.0 -7.8 -17.0 66 0.0 197
03/17/2020 0.05 0.00 0.7 -4.5 -10.9 67 0.0 178
03/18/2020 0.02 0.00 -6.3 -9.1 -11.7 87 0.0 114
03/19/2020 0.03 0.00 -6.8 -10.0 -12.8 85 0.0 155
03/20/2020 0.05 0.00 4.8 -8.6 -19.3 76 0.0 206
03/21/2020 0.07 0.00 9.0 -4.1 -13.4 66 0.0 199
03/22/2020 0.06 0.00 7.7 -2.7 -11.9 77 0.0 184
03/23/2020 0.08 0.00 10.0 2.0 -6.3 58 0.0 193
03/24/2020 0.04 0.00 -0.2 -3.6 -5.3 82 0.0 129
03/25/2020 0.06 0.00 2.7 -4.4 -10.1 74 0.0 207
03/26/2020 0.08 0.00 7.8 -2.6 -14.1 58 0.0 215
03/27/2020 0.09 0.00 12.6 2.1 -6.2 51 0.0 213
03/28/2020 0.03 0.00 4.2 -0.4 -3.7 72 0.0 70
03/29/2020 0.06 0.00 10.4 4.2 -1.1 57 0.0 136
03/30/2020 0.01 0.00 -0.6 -5.0 -8.7 97 0.0 37
03/31/2020 0.03 0.00 -8.5 -10.8 -12.4 79 0.0 140
04/01/2020 0.04 0.00 -8.7 -13.6 -16.1 67 0.0 196
04/02/2020 0.04 0.00 -7.2 -13.3 -20.4 73 0.0 184
04/03/2020 0.03 0.00 -6.7 -9.5 -12.3 81 0.0 123
04/04/2020 0.06 0.00 0.4 -7.2 -13.6 73 0.0 220
04/05/2020 0.02 0.00 -2.5 -5.6 -8.1 92 0.0 68
04/06/2020 0.07 0.00 5.5 -1.6 -7.2 81 0.0 213
04/07/2020 0.04 0.00 2.0 -2.3 -6.6 78 0.0 121
04/08/2020 0.09 0.00 6.7 -1.0 -7.6 60 0.0 234
04/09/2020 0.10 0.00 13.9 3.3 -6.2 55 0.0 216
04/10/2020 0.03 0.00 3.8 -0.2 -4.8 82 0.0 66
04/11/2020 0.06 0.00 -3.8 -6.0 -11.9 73 0.0 230
04/12/2020 0.07 0.00 -2.7 -7.3 -12.5 69 0.0 256
04/13/2020 0.08 0.00 4.6 -4.2 -11.9 64 0.0 261
04/14/2020 0.08 0.00 10.0 2.0 -4.3 71 0.0 195
04/15/2020 0.05 0.00 0.9 -1.0 -2.6 82 0.0 179
04/16/2020 0.11 0.00 11.5 1.6 -6.8 56 0.0 272
04/17/2020 0.07 0.00 11.8 4.6 -2.2 56 0.0 147
04/18/2020 0.04 0.00 4.9 1.3 -1.3 83 0.0 114
04/19/2020 0.13 0.00 15.8 5.5 -3.4 56 0.0 274
04/20/2020 0.13 0.00 19.4 9.6 1.2 44 0.0 261
04/21/2020 0.14 0.00 18.3 10.4 0.8 39 0.0 274
04/22/2020 0.10 0.00 15.4 6.8 -1.2 57 0.0 214
04/23/2020 0.11 0.00 16.9 6.2 -2.1 54 0.0 236
04/24/2020 0.13 0.00 16.0 6.5 -2.3 50 0.0 280
04/25/2020 0.11 0.00 16.8 6.5 -4.6 49 0.0 224
04/26/2020 0.13 0.00 15.2 8.9 0.0 33 0.0 270
04/27/2020 0.11 0.00 16.4 8.3 0.4 39 0.0 227
04/28/2020 0.13 0.00 17.0 7.8 -5.7 39 0.0 269
04/29/2020 0.12 0.00 20.3 11.7 -1.0 43 0.0 222
04/30/2020 0.15 0.01 19.8 12.4 4.7 45 9.6 180
05/01/2020 0.13 0.01 15.8 7.6 0.6 59 7.4 242
05/02/2020 0.18 0.00 19.1 8.9 -3.9 43 7.9 271
05/03/2020 0.11 0.23 17.3 6.9 -0.3 57 11.0 135
05/04/2020 0.07 0.01 8.4 4.1 -0.6 77 12.9 140
05/05/2020 0.16 0.00 16.2 7.5 -3.4 56 9.7 287
05/06/2020 0.11 0.01 15.9 7.2 -2.9 66 9.5 162
05/07/2020 0.10 0.04 16.3 9.2 5.1 70 9.7 123
05/08/2020 0.05 0.02 9.3 5.6 -0.1 82 16.2 86
05/09/2020 0.09 0.04 12.5 4.6 -2.1 79 8.7 187
05/10/2020 0.07 0.02 6.0 3.2 0.0 68 11.6 146
05/11/2020 0.07 0.00 7.2 3.1 -1.3 63 8.1 137
05/12/2020 0.11 0.00 9.5 4.7 -0.1 49 13.1 187
05/13/2020 0.15 0.00 15.5 6.5 -3.0 57 6.2 280
05/14/2020 0.19 0.00 17.8 8.4 0.6 46 13.8 308
05/15/2020 0.16 0.00 18.9 9.0 0.5 55 8.4 283
05/16/2020 0.22 0.00 21.0 11.7 0.4 47 9.1 328
05/17/2020 0.19 0.00 21.4 13.2 3.0 44 8.0 268
05/18/2020 0.14 0.00 20.3 12.2 3.7 54 7.2 183
05/19/2020 0.07 0.03 14.3 10.3 7.7 75 11.0 102
05/20/2020 0.02 0.19 10.1 8.7 7.4 93 7.8 37
05/21/2020 0.03 1.85 7.7 5.9 4.4 92 16.4 36
05/22/2020 0.04 0.01 6.9 4.5 3.3 90 9.3 97
05/23/2020 0.10 0.00 14.5 8.1 3.9 71 5.1 188
05/24/2020 0.18 0.00 21.7 11.9 2.1 55 6.4 297
05/25/2020 0.15 0.00 20.9 11.9 1.8 58 7.6 202
05/26/2020 0.14 0.04 17.1 9.3 3.3 70 11.7 258
05/27/2020 0.19 0.00 17.7 9.1 0.2 54 7.3 331
05/28/2020 0.21 0.00 20.7 11.5 -0.5 49 10.9 305
05/29/2020 0.20 0.00 22.7 14.2 3.0 53 7.9 311
05/30/2020 0.24 0.00 25.7 16.7 5.6 58 12.6 305
05/31/2020 0.09 0.33 23.7 14.4 8.1 78 10.5 129
06/01/2020 0.20 0.00 19.5 11.9 2.6 59 9.3 301
06/02/2020 0.20 0.00 21.9 12.4 1.5 47 10.8 277
06/03/2020 0.22 0.00 19.3 12.4 2.3 39 10.7 315
06/04/2020 0.16 0.04 16.7 9.9 4.0 54 7.5 270
06/05/2020 0.15 0.05 17.5 9.6 0.9 72 9.6 261
06/06/2020 0.14 0.11 19.5 13.3 8.0 69 7.0 225
06/07/2020 0.06 0.51 12.3 8.9 6.3 84 18.6 99
06/08/2020 0.14 0.06 16.9 9.1 1.0 70 8.9 252
06/09/2020 0.19 0.00 17.8 10.3 1.3 56 7.6 323
06/10/2020 0.23 0.00 22.8 14.1 4.0 48 7.1 349
06/11/2020 0.23 0.00 24.1 15.6 4.5 47 8.6 329
06/12/2020 0.21 0.17 26.9 17.6 7.8 54 8.3 253
06/13/2020 0.13 0.38 20.8 14.0 8.3 73 11.1 172
06/14/2020 0.18 0.00 19.7 12.9 5.8 62 7.3 276
06/15/2020 0.23 0.00 19.3 12.8 5.1 47 9.4 368
06/16/2020 0.18 0.00 18.5 11.5 3.0 56 9.3 288
06/17/2020 0.11 0.31 15.0 10.8 7.3 77 14.9 165
06/18/2020 0.13 0.01 17.1 11.8 7.7 76 7.4 246
06/19/2020 0.16 0.03 20.9 13.7 5.8 70 6.9 262
06/20/2020 0.17 0.00 24.9 16.1 7.2 67 5.9 252
06/21/2020 0.17 0.10 23.6 15.4 8.4 70 8.0 253
06/22/2020 0.20 0.00 23.9 16.2 6.0 66 7.1 314
06/23/2020 0.07 0.00 23.9 16.1 10.0 71 4.6 97
06/24/2020 0.12 0.16 21.9 15.4 11.3 77 7.4 188
06/25/2020 0.21 0.02 23.5 16.4 7.2 70 7.3 332
06/26/2020 0.19 0.00 27.8 17.4 9.5 65 7.9 277
06/27/2020 0.10 0.55 19.3 12.1 7.8 84 8.3 165
06/28/2020 0.07 0.34 13.4 9.7 6.5 87 13.4 132
06/29/2020 0.09 0.00 16.7 12.0 9.3 80 12.0 164
06/30/2020 0.04 1.26 11.7 10.6 9.5 94 15.9 96
07/01/2020 0.20 0.19 20.2 13.9 8.4 65 12.5 325
07/02/2020 0.12 0.00 16.2 13.0 5.8 54 10.3 146
07/03/2020 0.24 0.00 23.6 15.1 5.3 53 9.2 340
07/04/2020 0.21 0.00 22.8 14.6 6.5 58 10.6 320
07/05/2020 0.20 0.00 21.3 13.3 3.7 68 7.0 343
07/06/2020 0.21 0.00 23.0 15.3 5.8 67 7.1 336
07/07/2020 0.07 0.08 16.9 11.9 7.0 85 8.9 125
07/08/2020 0.12 0.36 17.9 12.8 9.6 77 16.1 192
07/09/2020 0.18 0.01 21.1 14.3 6.0 74 8.3 287
07/10/2020 0.22 0.00 22.5 16.0 8.6 63 7.3 338
07/11/2020 0.23 0.00 24.7 16.3 5.0 55 9.5 323
07/12/2020 0.15 0.11 21.6 14.9 7.5 62 7.3 242
07/13/2020 0.16 0.02 19.3 12.1 4.4 64 5.9 275
07/14/2020 0.22 0.00 22.3 13.7 3.6 52 7.6 346
07/15/2020 0.19 0.00 25.0 15.2 5.8 60 6.5 295
07/16/2020 0.21 0.00 26.7 16.7 6.8 66 9.0 295
07/17/2020 0.18 0.30 23.8 15.5 8.1 69 7.7 285
07/18/2020 0.20 0.01 23.5 15.3 6.8 64 7.0 323
07/19/2020 0.15 0.09 22.6 14.6 7.5 77 7.2 247
07/20/2020 0.18 0.00 23.0 15.6 8.6 69 7.2 296
07/21/2020 0.18 0.00 26.3 17.2 7.3 71 6.0 269
07/22/2020 0.18 0.00 25.2 18.2 10.8 76 7.7 281
07/23/2020 0.19 0.02 28.4 19.4 11.2 76 9.7 277
07/24/2020 0.11 0.09 21.5 12.7 6.1 85 8.7 197
07/25/2020 0.19 0.00 22.0 13.3 3.4 67 5.5 329
07/26/2020 0.20 0.00 24.6 15.2 5.4 62 5.9 324
07/27/2020 0.23 0.00 27.2 17.8 6.3 63 9.7 320
07/28/2020 0.21 0.00 32.2 21.0 9.7 59 5.2 295
07/29/2020 0.18 0.00 29.8 20.8 11.3 71 8.0 258
07/30/2020 0.17 0.07 28.4 21.3 16.2 75 8.3 243
07/31/2020 0.18 0.00 28.4 20.8 13.6 75 7.9 244
08/01/2020 0.19 0.00 27.8 20.6 14.2 66 11.0 239
08/02/2020 0.22 0.00 29.7 22.5 16.1 55 9.0 287
08/03/2020 0.18 0.00 29.5 18.3 9.9 62 8.1 228
08/04/2020 0.21 0.00 27.1 17.0 6.8 59 6.8 296
08/05/2020 0.24 0.00 29.3 19.3 7.9 56 9.4 293
08/06/2020 0.20 0.00 29.0 18.8 7.6 51 8.8 230
08/07/2020 0.15 0.10 20.8 14.0 7.4 62 10.2 235
08/08/2020 0.16 0.00 22.1 13.6 6.3 61 8.1 220
08/09/2020 0.17 0.00 22.1 11.8 1.2 58 5.5 292
08/10/2020 0.19 0.00 27.2 15.6 4.2 51 6.8 267
08/11/2020 0.16 0.00 23.5 14.9 7.2 67 9.5 235
08/12/2020 0.15 0.00 19.6 13.5 6.7 65 8.6 253
08/13/2020 0.14 0.00 22.6 12.3 1.7 59 5.3 228
08/14/2020 0.17 0.00 22.9 13.1 1.6 54 6.5 250
08/15/2020 0.18 0.00 28.7 17.0 6.3 56 5.6 265
08/16/2020 0.22 0.00 31.3 19.0 4.9 50 7.4 278
08/17/2020 0.23 0.00 32.6 22.4 13.3 41 9.8 231
08/18/2020 0.23 0.00 32.9 22.7 11.1 45 7.8 264
08/19/2020 0.19 0.00 30.6 19.6 9.7 52 9.6 250
08/20/2020 0.14 0.00 27.6 18.9 10.2 63 7.2 197
08/21/2020 0.17 0.00 29.4 17.4 6.1 58 7.0 236
08/22/2020 0.21 0.00 25.2 18.6 8.2 40 9.3 254
08/23/2020 0.15 0.00 25.6 14.0 3.9 59 6.5 212
08/24/2020 0.19 0.00 30.0 15.6 3.4 57 8.6 248
08/25/2020 0.17 0.11 25.3 16.0 8.2 57 7.7 243
08/26/2020 0.17 0.00 24.9 14.9 4.6 60 5.8 251
08/27/2020 0.14 0.00 22.0 13.6 7.5 64 7.4 222
08/28/2020 0.17 0.00 27.1 15.5 5.4 55 6.1 239
08/29/2020 0.11 0.07 14.6 10.0 5.8 69 9.7 179
08/30/2020 0.14 0.03 19.7 11.0 3.7 58 7.1 230
08/31/2020 0.14 0.00 21.2 11.4 1.8 55 6.8 221
09/01/2020 0.19 0.00 25.6 15.7 6.9 46 8.4 236
09/02/2020 0.08 0.03 16.8 11.5 4.4 67 10.3 123
09/03/2020 0.15 0.00 25.3 12.8 -0.2 61 6.6 215
09/04/2020 0.15 0.00 27.5 14.4 2.2 58 6.6 207
09/05/2020 0.17 0.00 31.2 17.9 8.6 53 7.5 204
09/06/2020 0.05 0.16 15.5 10.9 5.6 81 7.4 74
09/07/2020 0.06 0.59 9.9 4.4 -0.3 83 11.7 148
09/08/2020 0.12 0.00 20.0 7.7 -3.5 69 8.0 176
09/09/2020 0.14 0.00 23.9 12.8 3.3 62 5.3 218
09/10/2020 0.14 0.00 27.6 14.2 3.8 60 5.4 215
09/11/2020 0.17 0.00 29.8 17.0 5.8 50 9.1 213
09/12/2020 0.11 0.00 20.6 12.2 5.5 73 9.5 171
09/13/2020 0.08 0.00 17.5 10.4 5.3 65 8.9 112
09/14/2020 0.03 0.00 10.0 7.5 3.9 88 7.5 60
09/15/2020 0.04 0.00 11.7 8.4 6.5 82 4.4 63
09/16/2020 0.10 0.00 20.5 11.3 4.4 71 6.5 179
09/17/2020 0.12 0.00 21.3 12.2 3.6 70 9.0 168
09/18/2020 0.08 0.00 20.2 11.1 2.7 78 5.1 135
09/19/2020 0.05 0.00 19.0 13.7 8.5 70 4.8 51
09/20/2020 0.12 0.00 21.6 13.9 4.4 61 8.1 176
09/21/2020 0.11 0.00 23.0 11.3 0.6 58 6.8 168
09/22/2020 0.08 0.00 15.9 9.8 3.5 69 8.1 135
09/23/2020 0.12 0.00 21.7 11.2 -0.2 60 10.0 143
09/24/2020 0.18 0.00 20.2 14.3 3.6 38 16.8 181
09/25/2020 0.10 0.00 15.6 8.7 0.5 49 9.3 100
09/26/2020 0.12 0.00 16.4 8.1 -1.0 50 11.0 160
09/27/2020 0.11 0.00 18.1 7.4 -2.5 41 6.3 178
09/28/2020 0.09 0.00 25.3 12.0 2.3 48 6.8 87
09/29/2020 0.10 0.00 18.2 11.6 6.2 62 8.4 158
09/30/2020 0.07 0.00 16.5 9.7 4.1 54 5.8 109
10/01/2020 0.08 0.00 24.4 9.5 -1.3 61 4.8 123
10/02/2020 0.10 0.00 20.5 11.3 3.2 60 7.4 156
10/03/2020 0.10 0.00 21.9 10.4 0.6 65 7.4 156
10/04/2020 0.09 0.00 25.0 12.6 3.5 59 7.9 99
10/05/2020 0.11 0.00 24.7 13.0 1.9 62 7.4 140
10/06/2020 0.08 0.00 19.6 11.7 6.3 59 7.3 104
10/07/2020 0.07 0.00 15.8 8.4 2.4 66 7.3 127
10/08/2020 0.07 0.00 22.7 8.5 1.3 67 8.5 82
10/09/2020 0.05 0.00 14.9 8.4 2.5 70 11.9 64
10/10/2020 0.18 0.00 20.0 14.5 7.3 38 23.6 121
10/11/2020 0.10 0.00 12.4 6.2 -0.9 39 10.7 115
10/12/2020 0.02 0.16 4.4 0.9 -3.2 86 6.6 66
10/13/2020 0.02 0.00 7.3 -1.1 -6.3 89 6.7 62
10/14/2020 0.03 0.07 5.1 -0.2 -4.9 89 4.7 91
10/15/2020 0.05 0.00 7.1 -1.4 -8.1 75 6.3 129
10/16/2020 0.02 0.00 5.1 -1.4 -4.9 89 10.3 62
10/17/2020 0.03 0.01 -2.9 -6.4 -9.9 78 8.5 101
10/18/2020 0.01 0.00 -6.2 -8.4 -9.7 87 11.5 67
10/19/2020 0.01 0.00 -1.0 -6.3 -8.3 93 12.1 75
10/20/2020 0.03 0.13 1.2 -3.8 -9.7 85 9.4 127
10/21/2020 0.02 0.00 -3.0 -5.2 -9.2 88 15.6 65
10/22/2020 0.02 0.01 -4.1 -9.6 -13.4 83 5.9 92
10/23/2020 0.01 0.00 -8.7 -10.9 -14.0 91 7.4 63
10/24/2020 0.02 0.00 -9.6 -14.3 -22.8 84 8.1 103
10/25/2020 0.02 0.00 -4.7 -14.6 -23.0 73 6.2 119
10/26/2020 0.03 0.07 5.6 -2.0 -11.4 67 4.2 86
10/27/2020 0.06 0.00 12.0 6.2 -1.8 55 8.9 81
10/28/2020 0.01 0.06 3.1 1.0 -2.5 93 2.9 51
10/29/2020 0.01 0.00 4.8 0.1 -4.4 89 0.0 42
10/30/2020 0.04 0.00 11.8 5.7 -1.4 64 0.0 100
10/31/2020 0.02 0.00 10.7 1.9 -4.6 67 0.0 95
11/01/2020 0.03 0.00 19.0 4.2 -4.3 60 0.0 85
11/02/2020 0.04 0.00 23.9 9.6 -0.6 41 0.0 81
11/03/2020 0.04 0.00 20.8 8.6 -0.1 38 0.0 66
11/04/2020 0.03 0.00 17.3 9.5 -1.4 52 0.0 83
11/05/2020 0.02 0.00 13.0 7.5 -0.3 72 0.0 46
11/06/2020 0.01 0.00 3.3 0.3 -3.2 87 0.0 35
11/07/2020 0.01 0.00 -0.3 -2.9 -9.1 89 0.0 14
11/08/2020 0.01 0.00 -7.7 -9.6 -14.7 74 0.0 36
11/09/2020 0.02 0.00 1.1 -9.1 -19.6 76 0.0 91
11/10/2020 0.01 0.00 0.2 -2.5 -7.0 91 0.0 42
11/11/2020 0.01 0.00 -4.1 -11.5 -18.6 80 0.0 76
11/12/2020 0.02 0.00 3.5 -8.8 -18.6 68 0.0 66
11/13/2020 0.01 0.00 3.2 -3.3 -9.7 64 0.0 44
11/14/2020 0.02 0.00 3.1 -4.9 -14.2 70 0.0 73
11/15/2020 0.02 0.00 5.1 -4.1 -14.4 58 0.0 78
11/16/2020 0.02 0.00 5.1 -3.2 -10.9 62 0.0 57
11/17/2020 0.01 0.00 9.0 1.9 -3.3 82 0.0 52
11/18/2020 0.01 0.00 9.4 -1.0 -8.6 74 0.0 65
11/19/2020 0.00 0.00 -8.4 -10.4 -11.8 92 0.0 39
11/20/2020 0.02 0.00 2.5 -5.8 -16.3 73 0.0 47
11/21/2020 0.02 0.00 6.3 -3.1 -9.5 67 0.0 68
11/22/2020 0.01 0.00 8.0 -3.6 -9.8 58 0.0 21
11/23/2020 0.02 0.00 5.0 -4.1 -11.6 69 0.0 60
11/24/2020 0.01 0.00 7.6 -3.1 -11.8 70 0.0 27
11/25/2020 0.02 0.00 4.5 -2.5 -10.2 71 0.0 57
11/26/2020 0.01 0.00 4.1 -2.5 -9.5 72 0.0 62
11/27/2020 0.02 0.00 12.2 3.8 -4.0 48 0.0 57
11/28/2020 0.01 0.00 9.2 -1.7 -13.6 62 0.0 48
11/29/2020 0.01 0.00 7.3 -3.5 -14.4 57 0.0 17
11/30/2020 0.03 0.00 7.3 4.1 -1.7 31 0.0 19
12/01/2020 0.02 0.00 2.9 -3.4 -11.0 59 0.0 62
12/02/2020 0.01 0.00 13.4 0.4 -6.2 60 0.0 59
12/03/2020 0.02 0.00 18.2 2.4 -5.7 52 0.0 59
12/04/2020 0.02 0.00 13.4 3.6 -3.7 47 0.0 56
12/05/2020 0.02 0.00 12.5 1.4 -6.6 50 0.0 60
12/06/2020 0.02 0.00 14.9 1.4 -6.9 42 0.0 58
12/07/2020 0.01 0.00 12.0 3.7 -3.4 52 0.0 38
12/08/2020 0.01 0.00 12.7 3.1 -2.8 71 0.0 28
12/09/2020 0.01 0.00 2.5 -2.3 -13.6 96 0.0 27
12/10/2020 0.01 0.00 -2.6 -10.0 -14.4 90 0.0 52
12/11/2020 0.00 0.00 -7.3 -10.3 -16.0 96 0.0 17
12/12/2020 0.01 0.00 -5.4 -10.0 -17.7 87 0.0 35
12/13/2020 0.00 0.00 -13.9 -16.4 -17.8 88 0.0 19
12/14/2020 0.01 0.00 -1.5 -10.9 -18.5 85 0.0 42
12/15/2020 0.01 0.00 0.9 -5.5 -12.8 73 0.0 26
12/16/2020 0.01 0.00 3.9 -3.0 -9.5 64 0.0 39
12/17/2020 0.01 0.00 6.8 -0.9 -8.8 69 0.0 37
12/18/2020 0.01 0.00 4.3 -4.1 -13.1 73 0.0 42
12/19/2020 0.01 0.00 5.9 2.4 -2.0 42 0.0 54
12/20/2020 0.01 0.00 5.5 1.2 -5.4 56 0.0 53
12/21/2020 0.00 0.00 -1.0 -4.4 -8.4 81 0.0 19
12/22/2020 0.01 0.00 -3.6 -7.8 -17.5 91 0.0 33
12/23/2020 0.01 0.00 1.4 -10.6 -21.4 78 0.0 40
12/24/2020 0.02 0.00 8.4 1.9 -3.3 43 0.0 31
12/25/2020 0.01 0.00 2.0 -4.0 -7.4 65 0.0 41
12/26/2020 0.00 0.00 -3.4 -5.6 -8.8 91 0.0 33
12/27/2020 0.00 0.00 -6.8 -10.8 -19.1 93 0.0 17
12/28/2020 0.01 0.00 -5.8 -11.7 -19.2 87 0.0 25
12/29/2020 0.01 0.00 -8.3 -13.2 -18.7 77 0.0 50
12/30/2020 0.01 0.00 -3.0 -8.3 -14.1 74 0.0 41
12/31/2020 0.01 0.00 0.5 -7.2 -13.4 77 0.0 50